createdAt,value
2023-03-26T00:01:21.454Z,99998.72
2023-03-26T00:04:25.340Z,99993.44
2023-03-26T00:07:27.997Z,99990.72
2023-03-26T00:10:30.475Z,99981.13
2023-03-26T00:13:33.285Z,99991.19
2023-03-26T00:16:36.063Z,99989.41
2023-03-26T00:19:39.009Z,99988.88
2023-03-26T00:22:41.629Z,99988.66
2023-03-26T00:25:45.630Z,99988.44
2023-03-26T00:28:51.197Z,99999.63
2023-03-26T00:31:53.427Z,99997.41
2023-03-26T00:34:56.816Z,99994.47
2023-03-26T00:37:59.822Z,99984.13
2023-03-26T00:41:06.067Z,99984.88
2023-03-26T00:44:09.249Z,99979.06
2023-03-26T00:47:11.824Z,99979.06
2023-03-26T00:50:16.233Z,99969.03
2023-03-26T00:53:19.997Z,99970.41
2023-03-26T00:56:22.337Z,99969.66
2023-03-26T00:59:24.782Z,99957.66
2023-03-26T01:02:27.215Z,99951.62
2023-03-26T01:05:33.948Z,99943.72
2023-03-26T01:08:36.055Z,99952.78
2023-03-26T01:11:38.526Z,99948.88
2023-03-26T01:14:41.617Z,99946.69
2023-03-26T01:17:44.154Z,99941.81
2023-03-26T01:20:49.701Z,99947.41
2023-03-26T01:23:59.938Z,99956.41
2023-03-26T01:27:17.769Z,99948.28
2023-03-26T01:30:42.501Z,99945.13
2023-03-26T01:34:03.865Z,99950.88
2023-03-26T01:37:52.447Z,99950.78
2023-03-26T01:41:00.684Z,99954.56
2023-03-26T01:44:17.183Z,99958.28
2023-03-26T01:47:21.173Z,99964.19
2023-03-26T01:50:23.746Z,99961.94
2023-03-26T01:53:26.858Z,99961.22
2023-03-26T01:56:50.372Z,99956.94
2023-03-26T01:59:58.597Z,99946.69
2023-03-26T02:03:17.673Z,99951.12
2023-03-26T02:06:31.738Z,99962.16
2023-03-26T02:09:42.049Z,99965.44
2023-03-26T02:12:45.752Z,99973.13
2023-03-26T02:15:54.764Z,99969.03
2023-03-26T02:18:59.216Z,99970.63
2023-03-26T02:22:02.196Z,99974.53
2023-03-26T02:25:05.220Z,99973.91
2023-03-26T02:28:07.789Z,99967.25
2023-03-26T02:31:10.947Z,99971.88
2023-03-26T02:34:13.831Z,99975.06
2023-03-26T02:37:20.832Z,99972.94
2023-03-26T02:40:24.958Z,99970.97
2023-03-26T02:43:27.653Z,99961.97
2023-03-26T02:46:30.329Z,99960.31
2023-03-26T02:49:33.857Z,99954.59
2023-03-26T02:52:36.438Z,99953.31
2023-03-26T02:55:39.075Z,99951.34
2023-03-26T02:58:42.051Z,99947.53
2023-03-26T03:01:46.524Z,99943.81
2023-03-26T03:04:49.813Z,99949.41
2023-03-26T03:07:57.940Z,99957.50
2023-03-26T03:11:08.162Z,99960.75
2023-03-26T03:14:10.856Z,99951.03
2023-03-26T03:17:13.485Z,99955.03
2023-03-26T03:20:16.702Z,99949.13
2023-03-26T03:23:19.465Z,99948.91
2023-03-26T03:26:27.652Z,99958.94
2023-03-26T03:29:30.339Z,99960.53
2023-03-26T03:32:33.789Z,99960.44
2023-03-26T03:35:37.794Z,99966.22
2023-03-26T03:38:40.624Z,99956.19
2023-03-26T03:41:43.228Z,99948.31
2023-03-26T03:44:46.834Z,99956.53
2023-03-26T03:47:50.275Z,99952.75
2023-03-26T03:50:55.010Z,99970.13
2023-03-26T03:53:57.764Z,99972.72
2023-03-26T03:57:02.172Z,99969.53
2023-03-26T04:00:08.907Z,99974.50
2023-03-26T04:03:18.650Z,99979.38
2023-03-26T04:06:21.436Z,99976.09
2023-03-26T04:09:25.358Z,99986.00
2023-03-26T04:12:29.022Z,99989.88
2023-03-26T04:15:31.361Z,99990.62
2023-03-26T04:18:34.224Z,99982.25
2023-03-26T04:21:37.797Z,99984.47
2023-03-26T04:24:40.807Z,99987.06
2023-03-26T04:27:46.202Z,99978.09
2023-03-26T04:30:48.845Z,99976.47
2023-03-26T04:33:57.375Z,99973.28
2023-03-26T04:37:02.556Z,99973.66
2023-03-26T04:40:11.163Z,99976.19
2023-03-26T04:43:18.660Z,99974.69
2023-03-26T04:46:23.898Z,99979.84
2023-03-26T04:49:26.795Z,99984.94
2023-03-26T04:52:29.491Z,99985.41
2023-03-26T04:55:43.138Z,99981.47
2023-03-26T04:58:46.006Z,99985.47
2023-03-26T05:01:48.510Z,99993.63
2023-03-26T05:04:51.143Z,99995.16
2023-03-26T05:07:53.956Z,99988.63
2023-03-26T05:10:56.763Z,99977.63
2023-03-26T05:14:02.044Z,99969.00
2023-03-26T05:17:06.101Z,99977.28
2023-03-26T05:20:20.841Z,99971.78
2023-03-26T05:23:23.141Z,99975.72
2023-03-26T05:26:26.216Z,99974.69
2023-03-26T05:29:28.510Z,99972.28
2023-03-26T05:32:32.365Z,99973.16
2023-03-26T05:35:34.772Z,99978.25
2023-03-26T05:38:37.429Z,99970.75
2023-03-26T05:41:40.256Z,99974.09
2023-03-26T05:44:42.712Z,99969.19
2023-03-26T05:47:46.090Z,99971.25
2023-03-26T05:50:50.472Z,99981.34
2023-03-26T05:53:53.016Z,99971.41
2023-03-26T05:57:00.340Z,99975.81
2023-03-26T06:00:12.144Z,99972.72
2023-03-26T06:03:18.720Z,99971.37
2023-03-26T06:06:22.285Z,99973.31
2023-03-26T06:09:24.846Z,99965.84
2023-03-26T06:12:27.635Z,99964.34
2023-03-26T06:15:29.838Z,99963.44
2023-03-26T06:18:33.212Z,99965.94
2023-03-26T06:21:35.397Z,99959.72
2023-03-26T06:24:38.132Z,99956.09
2023-03-26T06:27:40.772Z,99953.56
2023-03-26T06:30:43.677Z,99956.63
2023-03-26T06:33:48.723Z,99958.53
2023-03-26T06:36:52.721Z,99951.72
2023-03-26T06:39:55.376Z,99956.59
2023-03-26T06:43:07.651Z,99953.97
2023-03-26T06:46:13.395Z,99961.47
2023-03-26T06:49:17.774Z,99957.69
2023-03-26T06:52:20.263Z,99955.31
2023-03-26T06:55:23.535Z,99953.94
2023-03-26T06:58:26.993Z,99962.47
2023-03-26T07:01:35.791Z,99956.34
2023-03-26T07:04:53.565Z,99961.97
2023-03-26T07:08:04.705Z,99952.16
2023-03-26T07:11:11.586Z,99959.69
2023-03-26T07:14:17.754Z,99949.16
2023-03-26T07:17:20.701Z,99959.28
2023-03-26T07:20:24.052Z,99952.28
2023-03-26T07:23:27.152Z,99956.37
2023-03-26T07:26:51.977Z,99954.91
2023-03-26T07:30:04.265Z,99958.38
2023-03-26T07:33:14.033Z,99960.53
2023-03-26T07:36:28.615Z,99969.78
2023-03-26T07:39:37.633Z,99974.47
2023-03-26T07:43:06.567Z,99968.91
2023-03-26T07:46:12.569Z,99974.62
2023-03-26T07:49:15.251Z,99982.97
2023-03-26T07:52:18.196Z,99972.41
2023-03-26T07:55:21.192Z,99980.72
2023-03-26T07:58:41.552Z,99972.28
2023-03-26T08:02:02.808Z,99978.16
2023-03-26T08:05:19.670Z,99972.44
2023-03-26T08:08:38.178Z,99981.22
2023-03-26T08:11:56.895Z,99975.25
2023-03-26T08:15:41.563Z,99973.53
2023-03-26T08:18:56.166Z,99966.56
2023-03-26T08:22:27.341Z,99962.13
2023-03-26T08:25:40.422Z,99963.91
2023-03-26T08:28:55.256Z,99970.63
2023-03-26T08:31:57.960Z,99958.53
2023-03-26T08:35:01.134Z,99969.16
2023-03-26T08:38:03.665Z,99960.56
2023-03-26T08:41:08.908Z,99956.44
2023-03-26T08:44:36.430Z,99954.25
2023-03-26T08:47:44.607Z,99954.50
2023-03-26T08:51:07.618Z,99945.88
2023-03-26T08:54:39.208Z,99946.72
2023-03-26T08:58:24.329Z,99943.53
2023-03-26T09:01:47.997Z,99938.66
2023-03-26T09:05:30.076Z,99944.28
2023-03-26T09:09:04.581Z,99939.22
2023-03-26T09:12:25.535Z,99936.69
2023-03-26T09:15:33.722Z,99925.91
2023-03-26T09:18:36.931Z,99930.94
2023-03-26T09:21:48.361Z,99928.66
2023-03-26T09:24:59.831Z,99925.69
2023-03-26T09:28:23.602Z,99916.53
2023-03-26T09:31:38.262Z,99916.69
2023-03-26T09:34:55.913Z,99909.34
2023-03-26T09:38:00.734Z,99911.53
2023-03-26T09:41:14.371Z,99915.81
2023-03-26T09:44:19.798Z,99918.13
2023-03-26T09:47:47.437Z,99903.75
2023-03-26T09:51:11.412Z,99885.41
2023-03-26T09:54:36.810Z,99890.00
2023-03-26T09:58:19.004Z,99878.72
2023-03-26T10:01:58.743Z,99881.00
2023-03-26T10:05:35.101Z,99866.91
2023-03-26T10:08:51.339Z,99858.66
2023-03-26T10:12:01.160Z,99850.84
2023-03-26T10:15:24.039Z,99854.63
2023-03-26T10:18:36.869Z,99849.56
2023-03-26T10:22:10.597Z,99852.09
2023-03-26T10:25:22.358Z,99856.28
2023-03-26T10:28:45.791Z,99851.16
2023-03-26T10:31:51.571Z,99886.00
2023-03-26T10:35:03.994Z,99895.69
2023-03-26T10:38:32.956Z,99909.53
2023-03-26T10:42:00.582Z,99884.81
2023-03-26T10:45:18.050Z,99866.63
2023-03-26T10:48:49.643Z,99859.03
2023-03-26T10:52:00.932Z,99842.25
2023-03-26T10:55:29.146Z,99826.13
2023-03-26T10:58:49.463Z,99826.84
2023-03-26T11:02:19.300Z,99815.75
2023-03-26T11:05:47.065Z,99807.75
2023-03-26T11:09:03.855Z,99799.22
2023-03-26T11:12:35.244Z,99787.69
2023-03-26T11:16:02.726Z,99792.19
2023-03-26T11:19:20.235Z,99778.84
2023-03-26T11:22:53.623Z,99776.25
2023-03-26T11:26:49.099Z,99763.63
2023-03-26T11:30:16.191Z,99757.66
2023-03-26T11:33:22.977Z,99746.12
2023-03-26T11:36:36.310Z,99752.78
2023-03-26T11:39:50.989Z,99745.47
2023-03-26T11:42:58.501Z,99738.53
2023-03-26T11:46:04.741Z,99712.97
2023-03-26T11:49:12.454Z,99720.16
2023-03-26T11:52:15.812Z,99716.81
2023-03-26T11:55:18.097Z,99707.28
2023-03-26T11:58:27.864Z,99707.03
2023-03-26T12:01:44.212Z,99688.34
2023-03-26T12:04:55.295Z,99681.47
2023-03-26T12:08:00.572Z,99667.06
2023-03-26T12:11:09.270Z,99652.94
2023-03-26T12:14:19.036Z,99663.56
2023-03-26T12:17:31.247Z,99648.69
2023-03-26T12:20:36.693Z,99646.47
2023-03-26T12:24:04.283Z,99637.22
2023-03-26T12:27:21.626Z,99638.62
2023-03-26T12:30:26.873Z,99622.88
2023-03-26T12:33:34.867Z,99617.38
2023-03-26T12:36:39.056Z,99614.78
2023-03-26T12:40:10.039Z,99610.78
2023-03-26T12:44:53.470Z,99597.44
2023-03-26T12:48:00.299Z,99594.28
2023-03-26T12:50:58.152Z,99570.44
2023-03-26T12:54:26.459Z,99584.56
2023-03-26T12:57:38.808Z,99565.41
2023-03-26T13:01:05.999Z,99566.69
2023-03-26T13:05:05.694Z,99560.50
2023-03-26T13:08:47.193Z,99564.03
2023-03-26T13:12:00.677Z,99554.22
2023-03-26T13:15:18.230Z,99540.28
2023-03-26T13:18:53.934Z,99531.25
2023-03-26T13:22:20.108Z,99532.22
2023-03-26T13:25:42.907Z,99515.34
2023-03-26T13:29:00.123Z,99510.31
2023-03-26T13:32:21.947Z,99501.66
2023-03-26T13:35:28.907Z,99503.63
2023-03-26T13:39:04.995Z,99504.87
2023-03-26T13:42:25.413Z,99493.25
2023-03-26T13:45:49.547Z,99490.28
2023-03-26T13:48:57.755Z,99493.44
2023-03-26T13:52:32.284Z,99485.59
2023-03-26T13:55:43.625Z,99483.44
2023-03-26T13:58:54.183Z,99480.47
2023-03-26T14:02:05.185Z,99465.22
2023-03-26T14:05:28.095Z,99456.16
2023-03-26T14:08:36.130Z,99447.22
2023-03-26T14:12:00.179Z,99435.47
2023-03-26T14:15:19.538Z,99425.59
2023-03-26T14:18:53.563Z,99419.41
2023-03-26T14:22:08.917Z,99417.94
2023-03-26T14:25:39.063Z,99428.28
2023-03-26T14:29:03.852Z,99419.56
2023-03-26T14:32:24.924Z,99417.13
2023-03-26T14:35:58.143Z,99427.34
2023-03-26T14:39:49.469Z,99420.00
2023-03-26T14:43:09.887Z,99409.31
2023-03-26T14:46:28.244Z,99406.03
2023-03-26T14:49:51.728Z,99405.03
2023-03-26T14:53:01.301Z,99395.88
2023-03-26T14:56:15.762Z,99401.56
2023-03-26T14:59:55.456Z,99393.00
2023-03-26T15:03:17.493Z,99390.75
2023-03-26T15:06:31.987Z,99380.75
2023-03-26T15:09:49.377Z,99361.47
2023-03-26T15:13:07.226Z,99365.72
2023-03-26T15:16:21.613Z,99366.31
2023-03-26T15:19:42.912Z,99351.94
2023-03-26T15:23:18.461Z,99351.81
2023-03-26T15:26:30.855Z,99349.62
2023-03-26T15:30:00.382Z,99334.34
2023-03-26T15:33:27.721Z,99336.47
2023-03-26T15:37:18.669Z,99328.09
2023-03-26T15:40:48.386Z,99314.06
2023-03-26T15:44:23.035Z,99322.97
2023-03-26T15:47:30.874Z,99322.31
2023-03-26T15:50:55.931Z,99325.16
2023-03-26T15:54:07.613Z,99320.28
2023-03-26T15:57:34.600Z,99315.91
2023-03-26T16:01:03.005Z,99310.16
2023-03-26T16:04:36.098Z,99309.19
2023-03-26T16:08:09.210Z,99290.59
2023-03-26T16:11:12.722Z,99285.97
2023-03-26T16:14:44.543Z,99277.00
2023-03-26T16:18:16.840Z,99273.91
2023-03-26T16:21:31.944Z,99265.28
2023-03-26T16:24:41.079Z,99258.62
2023-03-26T16:27:45.189Z,99252.31
2023-03-26T16:31:23.519Z,99246.66
2023-03-26T16:34:46.116Z,99243.53
2023-03-26T16:37:50.648Z,99243.22
2023-03-26T16:41:01.110Z,99242.69
2023-03-26T16:44:19.636Z,99249.69
2023-03-26T16:47:46.234Z,99244.69
2023-03-26T16:51:09.311Z,99250.16
2023-03-26T16:54:41.044Z,99252.47
2023-03-26T16:57:56.197Z,99252.91
2023-03-26T17:01:27.871Z,99249.91
2023-03-26T17:04:34.416Z,99249.03
2023-03-26T17:07:48.094Z,99250.94
2023-03-26T17:11:00.396Z,99248.94
2023-03-26T17:14:27.173Z,99254.09
2023-03-26T17:17:57.337Z,99248.09
2023-03-26T17:21:02.640Z,99247.91
2023-03-26T17:24:36.329Z,99250.25
2023-03-26T17:27:49.964Z,99255.22
2023-03-26T17:31:11.259Z,99256.16
2023-03-26T17:34:46.848Z,99251.81
2023-03-26T17:37:49.716Z,99260.13
2023-03-26T17:40:58.354Z,99260.28
2023-03-26T17:44:25.664Z,99249.84
2023-03-26T17:47:52.873Z,99248.34
2023-03-26T17:50:59.180Z,99251.19
2023-03-26T17:54:02.213Z,99245.03
2023-03-26T17:57:26.933Z,99247.50
2023-03-26T18:00:35.991Z,99253.28
2023-03-26T18:03:49.455Z,99246.81
2023-03-26T18:07:18.370Z,99241.34
2023-03-26T18:10:56.223Z,99249.16
2023-03-26T18:14:15.667Z,99252.34
2023-03-26T18:17:18.296Z,99245.03
2023-03-26T18:20:26.885Z,99241.91
2023-03-26T18:23:39.097Z,99243.41
2023-03-26T18:26:44.434Z,99239.87
2023-03-26T18:30:02.771Z,99243.75
2023-03-26T18:33:14.558Z,99240.22
2023-03-26T18:36:18.592Z,99233.72
2023-03-26T18:39:20.687Z,99232.41
2023-03-26T18:42:24.491Z,99224.75
2023-03-26T18:45:39.446Z,99218.44
2023-03-26T18:48:42.609Z,99211.44
2023-03-26T18:51:56.093Z,99211.91
2023-03-26T18:54:59.672Z,99206.06
2023-03-26T18:58:21.448Z,99201.22
2023-03-26T19:01:30.645Z,99188.25
2023-03-26T19:04:34.935Z,99185.06
2023-03-26T19:07:38.998Z,99179.56
2023-03-26T19:10:41.385Z,99177.22
2023-03-26T19:13:46.310Z,99175.69
2023-03-26T19:17:02.099Z,99173.72
2023-03-26T19:20:10.012Z,99166.06
2023-03-26T19:23:26.553Z,99169.75
2023-03-26T19:26:29.388Z,99170.34
2023-03-26T19:29:35.169Z,99159.47
2023-03-26T19:32:37.768Z,99159.03
2023-03-26T19:35:41.950Z,99155.00
2023-03-26T19:38:52.399Z,99151.03
2023-03-26T19:41:55.226Z,99142.22
2023-03-26T19:45:01.760Z,99128.94
2023-03-26T19:48:14.938Z,99123.25
2023-03-26T19:51:38.683Z,99119.19
2023-03-26T19:54:59.698Z,99109.16
2023-03-26T19:58:04.221Z,99109.28
2023-03-26T20:01:12.616Z,99093.97
2023-03-26T20:04:16.369Z,99089.75
2023-03-26T20:07:35.437Z,99086.72
2023-03-26T20:10:38.793Z,99080.41
2023-03-26T20:13:41.317Z,99066.94
2023-03-26T20:16:45.318Z,99065.41
2023-03-26T20:19:48.657Z,99057.19
2023-03-26T20:22:53.858Z,99055.25
2023-03-26T20:25:56.701Z,99040.53
2023-03-26T20:29:00.152Z,99039.69
2023-03-26T20:32:06.280Z,99031.56
2023-03-26T20:35:35.916Z,99029.19
2023-03-26T20:38:43.317Z,99025.81
2023-03-26T20:41:48.231Z,99029.53
2023-03-26T20:44:50.984Z,99015.69
2023-03-26T20:47:54.178Z,99009.69
2023-03-26T20:50:57.112Z,99013.81
2023-03-26T20:54:00.443Z,99011.97
2023-03-26T20:57:02.934Z,99006.22
2023-03-26T21:00:17.240Z,99013.19
2023-03-26T21:03:19.585Z,99007.88
2023-03-26T21:06:22.133Z,99007.56
2023-03-26T21:09:25.156Z,98993.25
2023-03-26T21:12:33.481Z,98987.78
2023-03-26T21:15:35.963Z,98987.31
2023-03-26T21:18:39.721Z,98984.66
2023-03-26T21:22:10.757Z,98985.66
2023-03-26T21:25:19.693Z,98983.66
2023-03-26T21:28:46.691Z,98991.25
2023-03-26T21:31:50.506Z,99007.88
2023-03-26T21:34:59.290Z,99005.84
2023-03-26T21:38:04.740Z,99023.59
2023-03-26T21:41:07.730Z,99039.97
2023-03-26T21:44:10.390Z,99038.66
2023-03-26T21:47:13.102Z,99038.31
2023-03-26T21:50:21.689Z,99039.97
2023-03-26T21:53:24.118Z,99047.59
2023-03-26T21:56:32.192Z,99038.41
2023-03-26T21:59:43.677Z,99035.31
2023-03-26T22:02:49.092Z,99037.72
2023-03-26T22:05:54.497Z,99024.34
2023-03-26T22:08:57.034Z,99027.53
2023-03-26T22:11:59.529Z,99027.69
2023-03-26T22:15:01.710Z,99026.00
2023-03-26T22:18:04.939Z,99013.16
2023-03-26T22:21:07.575Z,99020.72
2023-03-26T22:24:12.111Z,99014.50
2023-03-26T22:27:16.035Z,99020.69
2023-03-26T22:30:20.637Z,99015.16
2023-03-26T22:33:22.915Z,99017.56
2023-03-26T22:36:25.400Z,99014.03
2023-03-26T22:39:27.643Z,99007.19
2023-03-26T22:42:30.108Z,99006.78
2023-03-26T22:45:32.599Z,99005.84
2023-03-26T22:48:35.792Z,98992.75
2023-03-26T22:51:37.944Z,98988.00
2023-03-26T22:54:40.465Z,98982.44
2023-03-26T22:57:42.773Z,98980.34
2023-03-26T23:00:46.392Z,98974.50
2023-03-26T23:03:49.277Z,98973.78
2023-03-26T23:06:51.727Z,98968.78
2023-03-26T23:09:53.926Z,98965.56
2023-03-26T23:12:56.408Z,98967.53
2023-03-26T23:15:59.256Z,98965.56
2023-03-26T23:19:01.685Z,98955.97
2023-03-26T23:22:03.845Z,98957.91
2023-03-26T23:25:07.161Z,98955.41
2023-03-26T23:28:09.911Z,98948.59
2023-03-26T23:31:13.080Z,98952.06
2023-03-26T23:34:16.853Z,98949.81
2023-03-26T23:37:23.091Z,98940.78
2023-03-26T23:40:25.447Z,98933.41
2023-03-26T23:43:28.863Z,98932.72
2023-03-26T23:46:34.452Z,98922.72
2023-03-26T23:49:37.751Z,98912.16
2023-03-26T23:52:40.081Z,98905.38
2023-03-26T23:55:46.243Z,98900.78
2023-03-26T23:58:51.187Z,98890.75
